createdAt,value
2018-10-09T00:01:25.621Z,8.00
2018-10-09T00:03:53.789Z,8.00
2018-10-09T00:06:22.089Z,8.00
2018-10-09T00:08:50.236Z,8.00
2018-10-09T00:11:18.424Z,8.00
2018-10-09T00:13:46.611Z,8.00
2018-10-09T00:16:14.784Z,8.00
2018-10-09T00:18:42.968Z,8.00
2018-10-09T00:21:11.161Z,8.00
2018-10-09T00:23:39.336Z,8.00
2018-10-09T00:26:07.582Z,8.00
2018-10-09T00:28:35.685Z,8.00
2018-10-09T00:31:03.969Z,7.90
2018-10-09T00:33:32.137Z,7.90
2018-10-09T00:36:00.348Z,7.90
2018-10-09T00:38:28.528Z,7.90
2018-10-09T00:40:56.714Z,7.90
2018-10-09T00:43:24.881Z,7.90
2018-10-09T00:45:53.340Z,7.90
2018-10-09T00:48:21.503Z,7.90
2018-10-09T00:50:49.691Z,7.90
2018-10-09T00:53:17.873Z,7.90
2018-10-09T00:55:46.077Z,7.90
2018-10-09T00:58:14.232Z,7.90
2018-10-09T01:00:42.413Z,7.80
2018-10-09T01:03:10.605Z,7.80
2018-10-09T01:05:38.833Z,7.80
2018-10-09T01:08:07.064Z,7.80
2018-10-09T01:10:35.225Z,7.80
2018-10-09T01:13:03.414Z,7.80
2018-10-09T01:15:32.450Z,7.70
2018-10-09T01:18:00.641Z,7.70
2018-10-09T01:20:34.273Z,7.70
2018-10-09T01:23:05.028Z,7.70
2018-10-09T01:25:33.989Z,7.70
2018-10-09T01:28:02.210Z,7.60
2018-10-09T01:30:30.648Z,7.60
2018-10-09T01:32:58.979Z,7.60
2018-10-09T01:35:27.141Z,7.60
2018-10-09T01:37:55.329Z,7.60
2018-10-09T01:40:23.487Z,7.60
2018-10-09T01:42:51.768Z,7.50
2018-10-09T01:45:19.932Z,7.50
2018-10-09T01:47:48.125Z,7.50
2018-10-09T01:50:16.288Z,7.50
2018-10-09T01:52:44.736Z,7.50
2018-10-09T01:55:12.905Z,7.50
2018-10-09T01:57:41.112Z,7.40
2018-10-09T02:00:10.105Z,7.40
2018-10-09T02:02:38.337Z,7.40
2018-10-09T02:06:35.757Z,7.40
2018-10-09T02:09:05.193Z,7.30
2018-10-09T02:11:33.379Z,7.30
2018-10-09T02:14:01.649Z,7.30
2018-10-09T02:16:30.416Z,7.30
2018-10-09T02:18:58.607Z,7.30
2018-10-09T02:21:26.772Z,7.20
2018-10-09T02:23:55.007Z,7.20
2018-10-09T02:26:23.169Z,7.20
2018-10-09T02:28:51.348Z,7.20
2018-10-09T02:31:19.515Z,7.20
2018-10-09T02:33:47.703Z,7.20
2018-10-09T02:36:15.888Z,7.20
2018-10-09T02:38:44.139Z,7.20
2018-10-09T02:41:12.317Z,7.10
2018-10-09T02:43:40.508Z,7.10
2018-10-09T02:46:08.672Z,7.10
2018-10-09T02:48:36.866Z,7.10
2018-10-09T02:51:05.859Z,7.10
2018-10-09T02:53:34.040Z,7.10
2018-10-09T02:56:02.205Z,7.00
2018-10-09T02:58:30.408Z,7.00
2018-10-09T03:00:58.564Z,7.00
2018-10-09T03:03:26.797Z,7.00
2018-10-09T03:05:54.965Z,7.00
2018-10-09T03:08:23.180Z,6.90
2018-10-09T03:10:51.336Z,6.90
2018-10-09T03:13:19.520Z,6.90
2018-10-09T03:15:47.740Z,6.90
2018-10-09T03:18:16.029Z,6.90
2018-10-09T03:20:44.361Z,6.80
2018-10-09T03:23:12.588Z,6.90
2018-10-09T03:25:40.841Z,6.80
2018-10-09T03:28:09.139Z,6.80
2018-10-09T03:30:37.406Z,6.80
2018-10-09T03:33:05.760Z,6.80
2018-10-09T03:35:33.946Z,6.80
2018-10-09T03:38:02.152Z,6.80
2018-10-09T03:40:30.405Z,6.80
2018-10-09T03:42:58.920Z,6.80
2018-10-09T03:45:27.140Z,6.80
2018-10-09T03:47:55.340Z,6.70
2018-10-09T03:50:23.593Z,6.80
2018-10-09T03:52:51.899Z,6.70
2018-10-09T03:55:20.134Z,6.70
2018-10-09T03:57:48.472Z,6.70
2018-10-09T04:00:17.263Z,6.80
2018-10-09T04:02:45.484Z,6.80
2018-10-09T04:05:13.780Z,6.80
2018-10-09T04:07:42.246Z,6.80
2018-10-09T04:10:10.529Z,6.80
2018-10-09T04:12:38.836Z,6.80
2018-10-09T04:15:07.305Z,6.80
2018-10-09T04:17:35.543Z,6.80
2018-10-09T04:20:04.405Z,6.80
2018-10-09T04:22:32.597Z,6.80
2018-10-09T04:25:01.407Z,6.80
2018-10-09T04:27:29.669Z,6.80
2018-10-09T04:29:58.373Z,6.80
2018-10-09T04:32:26.625Z,6.80
2018-10-09T04:34:55.388Z,6.80
2018-10-09T04:37:23.713Z,6.80
2018-10-09T04:39:51.989Z,6.80
2018-10-09T04:42:20.252Z,6.80
2018-10-09T04:44:48.538Z,6.80
2018-10-09T04:47:16.816Z,6.80
2018-10-09T04:49:45.184Z,6.80
2018-10-09T04:52:13.440Z,6.80
2018-10-09T04:54:41.629Z,6.80
2018-10-09T04:57:09.901Z,6.80
2018-10-09T04:59:38.206Z,6.80
2018-10-09T05:02:06.460Z,6.70
2018-10-09T05:04:34.745Z,6.70
2018-10-09T05:07:03.006Z,6.70
2018-10-09T05:09:31.974Z,6.70
2018-10-09T05:12:00.184Z,6.70
2018-10-09T05:14:28.458Z,6.70
2018-10-09T05:16:56.712Z,6.70
2018-10-09T05:19:25.012Z,6.70
2018-10-09T05:21:53.270Z,6.70
2018-10-09T05:24:21.553Z,6.70
2018-10-09T05:26:49.810Z,6.70
2018-10-09T05:29:18.248Z,6.70
2018-10-09T05:31:46.474Z,6.70
2018-10-09T05:34:14.764Z,6.70
2018-10-09T05:36:43.026Z,6.70
2018-10-09T05:39:11.317Z,6.70
2018-10-09T05:41:39.573Z,6.70
2018-10-09T05:44:07.910Z,6.70
2018-10-09T05:46:36.128Z,6.80
2018-10-09T05:49:05.170Z,6.80
2018-10-09T05:51:33.376Z,6.80
2018-10-09T05:54:01.581Z,6.70
2018-10-09T05:56:29.842Z,6.80
2018-10-09T05:58:58.189Z,6.70
2018-10-09T06:01:27.421Z,6.70
2018-10-09T06:03:55.681Z,6.80
2018-10-09T06:06:23.983Z,6.80
2018-10-09T06:08:52.229Z,6.80
2018-10-09T06:11:20.546Z,6.80
2018-10-09T06:13:48.776Z,6.80
2018-10-09T06:16:17.785Z,6.80
2018-10-09T06:18:46.073Z,6.80
2018-10-09T06:21:14.569Z,6.80
2018-10-09T06:23:42.793Z,6.80
2018-10-09T06:26:10.988Z,6.90
2018-10-09T06:28:39.144Z,6.90
2018-10-09T06:31:07.456Z,6.90
2018-10-09T06:33:35.944Z,6.90
2018-10-09T06:36:04.140Z,6.90
2018-10-09T06:38:32.365Z,7.00
2018-10-09T06:41:00.898Z,7.00
2018-10-09T06:43:29.105Z,7.10
2018-10-09T06:45:57.297Z,7.10
2018-10-09T06:48:25.576Z,7.20
2018-10-09T06:50:53.861Z,7.20
2018-10-09T06:53:22.159Z,7.20
2018-10-09T06:55:50.297Z,7.30
2018-10-09T06:58:18.556Z,7.30
2018-10-09T07:00:46.861Z,7.40
2018-10-09T07:03:15.117Z,7.50
2018-10-09T07:05:43.404Z,7.50
2018-10-09T07:08:11.663Z,7.60
2018-10-09T07:10:39.957Z,7.60
2018-10-09T07:13:08.209Z,7.70
2018-10-09T07:15:36.500Z,7.80
2018-10-09T07:18:04.757Z,7.90
2018-10-09T07:20:32.953Z,8.00
2018-10-09T07:23:01.203Z,8.00
2018-10-09T07:25:29.392Z,8.10
2018-10-09T07:27:57.775Z,8.20
2018-10-09T07:30:25.945Z,8.30
2018-10-09T07:32:54.210Z,8.40
2018-10-09T07:35:22.489Z,8.50
2018-10-09T07:37:50.778Z,8.60
2018-10-09T07:40:19.057Z,8.70
2018-10-09T07:42:47.310Z,8.80
2018-10-09T07:45:15.597Z,8.90
2018-10-09T07:47:43.870Z,9.00
2018-10-09T07:50:12.148Z,9.10
2018-10-09T07:52:40.430Z,9.20
2018-10-09T07:55:08.741Z,9.30
2018-10-09T07:57:36.941Z,9.40
2018-10-09T08:00:05.194Z,9.50
2018-10-09T08:02:33.597Z,9.60
2018-10-09T08:05:02.057Z,9.70
2018-10-09T08:07:30.265Z,9.80
2018-10-09T08:09:58.453Z,10.00
2018-10-09T08:12:26.687Z,10.10
2018-10-09T08:14:55.117Z,10.30
2018-10-09T08:17:23.308Z,10.40
2018-10-09T08:19:51.489Z,10.50
2018-10-09T08:22:19.768Z,10.70
2018-10-09T08:24:48.274Z,10.80
2018-10-09T08:27:16.547Z,10.90
2018-10-09T08:29:44.750Z,11.10
2018-10-09T08:32:13.069Z,11.20
2018-10-09T08:34:41.342Z,11.30
2018-10-09T08:37:09.699Z,11.40
2018-10-09T08:39:38.590Z,11.50
2018-10-09T08:42:07.363Z,11.60
2018-10-09T08:44:35.558Z,11.70
2018-10-09T08:47:03.764Z,11.80
2018-10-09T08:49:31.949Z,11.90
2018-10-09T08:52:00.173Z,12.00
2018-10-09T08:54:28.317Z,12.10
2018-10-09T08:56:56.509Z,12.20
2018-10-09T08:59:24.693Z,12.30
2018-10-09T09:01:53.006Z,12.30
2018-10-09T09:04:21.193Z,12.40
2018-10-09T09:06:49.404Z,12.50
2018-10-09T09:09:17.577Z,12.60
2018-10-09T09:11:45.789Z,12.80
2018-10-09T09:14:13.977Z,12.90
2018-10-09T09:16:42.177Z,13.10
2018-10-09T09:19:10.354Z,13.30
2018-10-09T09:21:38.561Z,13.50
2018-10-09T09:24:06.820Z,13.70
2018-10-09T09:26:35.102Z,13.90
2018-10-09T09:29:03.207Z,14.10
2018-10-09T09:31:31.503Z,14.30
2018-10-09T09:33:59.693Z,14.40
2018-10-09T09:36:27.898Z,14.60
2018-10-09T09:38:56.090Z,14.70
2018-10-09T09:41:24.298Z,14.80
2018-10-09T09:43:52.480Z,14.90
2018-10-09T09:46:20.697Z,15.10
2018-10-09T09:48:48.862Z,15.20
2018-10-09T09:51:17.042Z,15.30
2018-10-09T09:53:45.277Z,15.40
2018-10-09T09:56:13.585Z,15.60
2018-10-09T09:58:42.103Z,15.70
2018-10-09T10:01:11.178Z,15.80
2018-10-09T10:03:40.519Z,15.90
2018-10-09T10:06:09.737Z,16.10
2018-10-09T10:08:38.793Z,16.20
2018-10-09T10:11:07.468Z,16.30
2018-10-09T10:13:36.122Z,16.50
2018-10-09T10:16:04.570Z,16.70
2018-10-09T10:18:33.342Z,17.00
2018-10-09T10:21:01.516Z,17.20
2018-10-09T10:23:29.718Z,17.30
2018-10-09T10:25:57.920Z,17.30
2018-10-09T10:28:26.112Z,17.40
2018-10-09T10:30:54.281Z,17.40
2018-10-09T10:33:22.540Z,17.40
2018-10-09T10:35:50.733Z,17.50
2018-10-09T10:38:18.927Z,17.50
2018-10-09T10:40:47.116Z,17.50
2018-10-09T10:43:15.311Z,17.50
2018-10-09T10:45:43.497Z,17.50
2018-10-09T10:48:11.707Z,17.50
2018-10-09T10:50:39.893Z,17.60
2018-10-09T10:53:08.144Z,17.60
2018-10-09T10:55:36.328Z,17.70
2018-10-09T10:58:04.541Z,17.80
2018-10-09T11:00:32.725Z,17.90
2018-10-09T11:03:00.919Z,17.90
2018-10-09T11:05:29.090Z,18.00
2018-10-09T11:07:57.354Z,18.00
2018-10-09T11:10:25.456Z,18.00
2018-10-09T11:12:53.749Z,18.10
2018-10-09T11:15:21.957Z,18.20
2018-10-09T11:17:50.468Z,18.20
2018-10-09T11:20:19.457Z,18.20
2018-10-09T11:22:48.236Z,18.20
2018-10-09T11:25:16.481Z,18.20
2018-10-09T11:27:44.737Z,18.30
2018-10-09T11:30:12.933Z,18.40
2018-10-09T11:32:41.142Z,18.40
2018-10-09T11:35:09.320Z,18.40
2018-10-09T11:37:37.530Z,18.40
2018-10-09T11:40:05.712Z,18.40
2018-10-09T11:42:33.891Z,18.50
2018-10-09T11:45:02.097Z,18.50
2018-10-09T11:47:30.271Z,18.50
2018-10-09T11:49:58.472Z,18.60
2018-10-09T11:52:26.673Z,18.70
2018-10-09T11:54:54.865Z,18.70
2018-10-09T11:57:23.050Z,18.80
2018-10-09T11:59:51.309Z,18.80
2018-10-09T12:02:19.861Z,19.00
2018-10-09T12:04:48.081Z,19.10
2018-10-09T12:07:16.260Z,19.10
2018-10-09T12:09:44.536Z,19.20
2018-10-09T12:12:12.681Z,19.30
2018-10-09T12:14:40.948Z,19.40
2018-10-09T12:17:09.217Z,19.50
2018-10-09T12:19:37.417Z,19.60
2018-10-09T12:22:05.581Z,19.70
2018-10-09T12:24:34.815Z,19.70
2018-10-09T12:27:02.997Z,19.80
2018-10-09T12:29:31.200Z,19.90
2018-10-09T12:31:59.405Z,20.00
2018-10-09T12:34:27.586Z,20.00
2018-10-09T12:36:55.833Z,20.10
2018-10-09T12:39:24.024Z,20.10
2018-10-09T12:41:52.185Z,20.20
2018-10-09T12:44:20.434Z,20.20
2018-10-09T12:46:48.546Z,20.20
2018-10-09T12:49:16.896Z,20.20
2018-10-09T12:51:45.077Z,20.20
2018-10-09T12:54:13.258Z,20.10
2018-10-09T12:56:41.432Z,20.10
2018-10-09T12:59:09.648Z,20.00
2018-10-09T13:01:37.861Z,20.00
2018-10-09T13:04:06.041Z,19.90
2018-10-09T13:06:34.256Z,19.80
2018-10-09T13:09:02.537Z,19.70
2018-10-09T13:11:30.700Z,19.60
2018-10-09T13:13:58.917Z,19.60
2018-10-09T13:16:27.133Z,19.50
2018-10-09T13:18:55.352Z,19.60
2018-10-09T13:21:23.581Z,19.70
2018-10-09T13:23:51.714Z,19.80
2018-10-09T13:26:19.881Z,19.80
2018-10-09T13:28:48.053Z,19.80
2018-10-09T13:31:16.220Z,19.80
2018-10-09T13:33:44.429Z,19.80
2018-10-09T13:36:12.650Z,19.70
2018-10-09T13:38:40.769Z,19.60
2018-10-09T13:41:09.028Z,19.60
2018-10-09T13:43:37.152Z,19.50
2018-10-09T13:46:05.520Z,19.40
2018-10-09T13:48:33.697Z,19.30
2018-10-09T13:51:01.878Z,19.20
2018-10-09T13:53:30.050Z,19.10
2018-10-09T13:55:58.229Z,19.00
2018-10-09T13:58:26.388Z,19.00
2018-10-09T14:00:54.569Z,18.90
2018-10-09T14:03:22.721Z,18.80
2018-10-09T14:05:51.102Z,18.80
2018-10-09T14:08:19.566Z,18.70
2018-10-09T14:10:47.830Z,18.60
2018-10-09T14:13:15.982Z,18.60
2018-10-09T14:15:44.346Z,18.60
2018-10-09T14:18:12.500Z,18.60
2018-10-09T14:20:40.881Z,18.60
2018-10-09T14:23:09.042Z,18.60
2018-10-09T14:25:37.221Z,18.60
2018-10-09T14:28:05.537Z,18.60
2018-10-09T14:30:33.705Z,18.70
2018-10-09T14:33:01.904Z,18.70
2018-10-09T14:35:30.077Z,18.70
2018-10-09T14:37:58.229Z,18.70
2018-10-09T14:40:26.406Z,18.70
2018-10-09T14:42:54.566Z,18.70
2018-10-09T14:45:22.780Z,18.70
2018-10-09T14:47:51.037Z,18.70
2018-10-09T14:50:19.214Z,18.80
2018-10-09T14:52:47.381Z,18.80
2018-10-09T14:55:15.604Z,18.80
2018-10-09T14:57:43.868Z,18.80
2018-10-09T15:00:12.326Z,18.80
2018-10-09T15:02:41.266Z,18.90
2018-10-09T15:05:09.985Z,18.90
2018-10-09T15:07:38.133Z,18.90
2018-10-09T15:10:06.315Z,18.90
2018-10-09T15:12:34.461Z,19.00
2018-10-09T15:15:02.657Z,19.00
2018-10-09T15:17:30.848Z,19.00
2018-10-09T15:19:58.993Z,19.00
2018-10-09T15:22:27.149Z,19.00
2018-10-09T15:24:55.304Z,19.10
2018-10-09T15:27:23.477Z,19.10
2018-10-09T15:29:51.637Z,19.10
2018-10-09T15:32:19.828Z,19.10
2018-10-09T15:34:47.985Z,19.10
2018-10-09T15:37:16.156Z,19.10
2018-10-09T15:39:44.317Z,19.10
2018-10-09T15:42:12.497Z,19.10
2018-10-09T15:44:40.650Z,19.10
2018-10-09T15:47:09.013Z,19.10
2018-10-09T15:49:37.230Z,19.10
2018-10-09T15:52:05.412Z,19.10
2018-10-09T15:54:33.564Z,19.10
2018-10-09T15:57:02.954Z,19.00
2018-10-09T15:59:31.145Z,19.00
2018-10-09T16:01:59.325Z,19.00
2018-10-09T16:04:30.897Z,19.00
2018-10-09T16:06:59.101Z,18.90
2018-10-09T16:09:27.566Z,18.90
2018-10-09T16:11:55.782Z,18.90
2018-10-09T16:14:24.121Z,18.90
2018-10-09T16:16:52.301Z,18.80
2018-10-09T16:19:20.715Z,18.80
2018-10-09T16:21:49.233Z,18.80
2018-10-09T16:24:17.428Z,18.70
2018-10-09T16:26:45.794Z,18.60
2018-10-09T16:29:14.151Z,18.00
2018-10-09T16:31:42.366Z,18.50
2018-10-09T16:34:10.520Z,18.40
2018-10-09T16:36:38.741Z,18.30
2018-10-09T16:39:09.022Z,18.30
2018-10-09T16:41:37.340Z,18.30
2018-10-09T16:44:05.494Z,18.20
2018-10-09T16:46:33.702Z,18.10
2018-10-09T16:49:01.917Z,18.10
2018-10-09T16:51:30.289Z,18.00
2018-10-09T16:53:58.448Z,17.90
2018-10-09T16:56:26.620Z,17.80
2018-10-09T16:58:55.159Z,17.70
2018-10-09T17:01:23.663Z,17.60
2018-10-09T17:03:51.841Z,17.50
2018-10-09T17:06:20.362Z,17.40
2018-10-09T17:08:48.522Z,17.40
2018-10-09T17:11:16.681Z,17.30
2018-10-09T17:13:44.833Z,17.20
2018-10-09T17:16:13.242Z,17.10
2018-10-09T17:18:41.409Z,17.00
2018-10-09T17:21:09.566Z,16.90
2018-10-09T17:23:37.773Z,16.80
2018-10-09T17:26:06.070Z,16.70
2018-10-09T17:28:34.326Z,16.60
2018-10-09T17:31:02.425Z,16.60
2018-10-09T17:33:30.623Z,16.40
2018-10-09T17:35:58.864Z,16.40
2018-10-09T17:38:27.029Z,16.30
2018-10-09T17:40:55.192Z,16.20
2018-10-09T17:43:23.370Z,16.10
2018-10-09T17:45:51.527Z,16.00
2018-10-09T17:48:19.714Z,16.00
2018-10-09T17:50:47.873Z,15.90
2018-10-09T17:53:16.048Z,15.80
2018-10-09T17:55:44.205Z,15.70
2018-10-09T17:58:12.380Z,15.70
2018-10-09T18:00:40.533Z,15.70
2018-10-09T18:03:08.765Z,15.60
2018-10-09T18:05:36.917Z,15.50
2018-10-09T18:08:05.110Z,15.40
2018-10-09T18:10:33.280Z,15.40
2018-10-09T18:13:01.453Z,15.30
2018-10-09T18:15:29.653Z,15.30
2018-10-09T18:17:59.747Z,15.20
2018-10-09T18:20:29.014Z,15.10
2018-10-09T18:22:58.657Z,15.10
2018-10-09T18:25:27.754Z,15.00
2018-10-09T18:27:56.880Z,14.90
2018-10-09T18:30:25.931Z,14.90
2018-10-09T18:32:54.684Z,14.80
2018-10-09T18:35:23.846Z,14.80
2018-10-09T18:37:53.595Z,14.80
2018-10-09T18:40:21.776Z,14.70
2018-10-09T18:42:51.365Z,14.70
2018-10-09T18:45:20.701Z,14.60
2018-10-09T18:47:49.941Z,14.60
2018-10-09T18:50:19.208Z,14.50
2018-10-09T18:52:48.530Z,14.50
2018-10-09T18:55:18.447Z,14.40
2018-10-09T18:57:46.761Z,14.40
2018-10-09T19:00:14.969Z,14.30
2018-10-09T19:02:43.164Z,14.30
2018-10-09T19:05:11.446Z,14.20
2018-10-09T19:07:39.917Z,14.20
2018-10-09T19:10:08.653Z,14.10
2018-10-09T19:12:36.873Z,14.10
2018-10-09T19:15:05.240Z,14.00
2018-10-09T19:17:33.436Z,14.00
2018-10-09T19:20:01.583Z,13.90
2018-10-09T19:22:29.744Z,13.90
2018-10-09T19:24:57.948Z,13.80
2018-10-09T19:27:27.821Z,13.80
2018-10-09T19:29:55.997Z,13.70
2018-10-09T19:32:24.185Z,13.60
2018-10-09T19:34:52.337Z,13.60
2018-10-09T19:37:20.493Z,13.60
2018-10-09T19:39:48.752Z,13.50
2018-10-09T19:42:16.828Z,13.50
2018-10-09T19:44:45.041Z,13.40
2018-10-09T19:47:13.201Z,13.40
2018-10-09T19:49:41.372Z,13.40
2018-10-09T19:52:09.840Z,13.30
2018-10-09T19:54:38.024Z,13.30
2018-10-09T19:57:06.180Z,13.30
2018-10-09T19:59:34.353Z,13.20
2018-10-09T20:02:02.514Z,13.20
2018-10-09T20:04:30.702Z,13.20
2018-10-09T20:06:58.913Z,13.10
2018-10-09T20:09:27.099Z,13.00
2018-10-09T20:11:55.260Z,13.00
2018-10-09T20:14:23.511Z,13.00
2018-10-09T20:16:52.001Z,12.90
2018-10-09T20:19:20.205Z,12.90
2018-10-09T20:21:48.359Z,12.80
2018-10-09T20:24:16.531Z,12.80
2018-10-09T20:26:44.688Z,12.80
2018-10-09T20:29:12.872Z,12.70
2018-10-09T20:31:41.637Z,12.70
2018-10-09T20:34:09.820Z,12.70
2018-10-09T20:36:37.994Z,12.60
2018-10-09T20:39:07.163Z,12.60
2018-10-09T20:41:35.314Z,12.50
2018-10-09T20:44:03.543Z,12.50
2018-10-09T20:46:31.714Z,12.40
2018-10-09T20:48:59.881Z,12.40
2018-10-09T20:51:28.050Z,12.40
2018-10-09T20:53:56.240Z,12.40
2018-10-09T20:56:24.405Z,12.30
2018-10-09T20:58:52.576Z,12.30
2018-10-09T21:01:20.739Z,12.20
2018-10-09T21:03:48.919Z,12.20
2018-10-09T21:06:17.100Z,12.20
2018-10-09T21:08:45.261Z,12.10
2018-10-09T21:11:13.416Z,12.10
2018-10-09T21:13:41.624Z,12.10
2018-10-09T21:16:10.236Z,12.00
2018-10-09T21:18:38.411Z,12.00
2018-10-09T21:21:06.825Z,12.00
2018-10-09T21:23:35.026Z,11.90
2018-10-09T21:26:03.176Z,11.90
2018-10-09T21:28:31.336Z,11.90
2018-10-09T21:30:59.505Z,11.80
2018-10-09T21:33:27.673Z,11.80
2018-10-09T21:35:55.905Z,11.80
2018-10-09T21:38:24.246Z,11.70
2018-10-09T21:40:52.445Z,11.70
2018-10-09T21:43:20.600Z,11.70
2018-10-09T21:45:48.801Z,11.70
2018-10-09T21:48:16.953Z,11.60
2018-10-09T21:50:45.138Z,11.60
2018-10-09T21:53:13.285Z,11.60
2018-10-09T21:55:41.461Z,11.60
2018-10-09T21:58:09.625Z,11.50
2018-10-09T22:00:43.080Z,11.50
2018-10-09T22:03:11.238Z,11.40
2018-10-09T22:05:39.713Z,11.40
2018-10-09T22:08:08.204Z,11.40
2018-10-09T22:10:36.617Z,11.30
2018-10-09T22:13:04.793Z,11.30
2018-10-09T22:15:32.975Z,11.30
2018-10-09T22:18:01.230Z,11.20
2018-10-09T22:20:29.441Z,11.20
2018-10-09T22:22:57.610Z,11.20
2018-10-09T22:25:25.780Z,11.10
2018-10-09T22:27:53.945Z,11.10
2018-10-09T22:30:22.132Z,11.10
2018-10-09T22:32:50.309Z,11.10
2018-10-09T22:35:18.580Z,11.00
2018-10-09T22:37:46.809Z,11.00
2018-10-09T22:40:15.597Z,11.00
2018-10-09T22:42:43.748Z,11.00
2018-10-09T22:45:12.694Z,10.90
2018-10-09T22:47:41.251Z,10.90
2018-10-09T22:50:09.584Z,10.90
2018-10-09T22:52:37.736Z,10.80
2018-10-09T22:55:06.615Z,10.80
2018-10-09T22:57:34.970Z,10.80
2018-10-09T23:00:03.646Z,10.70
2018-10-09T23:02:31.826Z,10.70
2018-10-09T23:04:59.994Z,10.70
2018-10-09T23:07:28.153Z,10.60
2018-10-09T23:09:56.433Z,10.60
2018-10-09T23:12:24.681Z,10.60
2018-10-09T23:14:52.838Z,10.50
2018-10-09T23:17:21.026Z,10.50
2018-10-09T23:19:49.549Z,10.50
2018-10-09T23:22:18.189Z,10.40
2018-10-09T23:24:46.381Z,10.40
2018-10-09T23:27:15.165Z,10.40
2018-10-09T23:29:43.328Z,10.30
2018-10-09T23:32:11.708Z,10.30
2018-10-09T23:34:39.897Z,10.30
2018-10-09T23:37:08.361Z,10.20
2018-10-09T23:39:36.508Z,10.20
2018-10-09T23:42:04.680Z,10.20
2018-10-09T23:44:32.852Z,10.10
2018-10-09T23:47:01.096Z,10.10
2018-10-09T23:49:29.253Z,10.10
2018-10-09T23:51:57.440Z,10.00
2018-10-09T23:54:25.606Z,10.00
2018-10-09T23:56:53.777Z,10.00
2018-10-09T23:59:21.929Z,10.00
